Boeing Field King County International Airport
KBFI : rendu visible

Aérodrome :











RETROUVEZ-NOUS SUR...

 
LOGIN :

S'inscrire | Disclaimer

   EN    FR    IT 

 









Légende :    VFR   VFR Marginal   IFR   IFR Intensif   IFR Très Intensif
Visi : 
Plafond : 
>= 8 km
>= 3000ft
5 à 8 km
1000 à 3000 ft
1500m à 5 km
500 à 1000 ft
800 à 1500m
200 à 500 ft
< 800m
< 200 ft
Symboles :   Orages  Brouillard  Fortes neiges  Fortes précipitations  Vent > 20 kt






- Altitude de l'aérodrome : 21 ft
- Code IATA : BFI


KBFI - Boeing Field King County International

DERNIER METAR :
  • 201653Z 00000KT 10SM SCT200 04/M01 A3026 RMK AO2 SLP247 T00441006

METARs EXPIRÉS :
  • 201553Z 00000KT 10SM FEW200 01/M03 A3026 RMK AO2 SLP245 T00111033
  • 201453Z 00000KT 10SM CLR 00/M04 A3024 RMK AO2 SLP241 T00001044 56001

TAF KBFI
Valide du 20 à 12h jusqu'au 21 à 12h UTC


201120Z 2012/2112 00000KT P6SM SKC
FM201800 VRB04KT P6SM SCT250



MET'MAP, la Météo Aéronautique d'un coup d'oeil ! - Copyright ORBIFLY Décembre 2007 - Disclaimer

ORBIFLY MET'MAP TEAM :

Programmation & Développement : Alexandra Zaïnal
Sur une idée originale de : Baudouin d'Aumeries
Assistance à la programmation : Marc-Olivier Méhu
Soutien technique & logistique : Manuel Goepfert

Contact : metmap@orbifly.com




SOURCES & CREDITS :

   NOAA       Earth
Advisory